Terminal Aerodrome Forecast
Issued by NWS

Home | Current Version | Previous Version | Graphics & Text | Print | Product List | Glossary On
Versions: 1 2 3 4 5 6 7 8 9 10 11 12 13
000
FTUS43 KMPX 270900 AAA
TAFRWF
TAF AMD
KRWF 270919Z 2709/2806 35011KT 1 1/2SM -SN BR SCT009 OVC016
     FM271130 33010KT 4SM -SN BR OVC016
     FM271430 30008KT P6SM SCT015 OVC040
     FM271800 27009KT P6SM SCT040
     FM280000 24007KT P6SM SCT060 BKN250=

USA.gov is the U.S. government's official web portal to all federal, state and local government web resources and services.